Time;durP1;ratioP1;P1;durP2;ratioP2;P2;SDS_P1;SDS_P2;PMS_P1;PMS_P2;Temp;Humidity;BMP_temperature;BMP_pressure;BME280_temperature;BME280_humidity;BME280_pressure;Samples;Min_cycle;Max_cycle;Signal;HPM_P1;HPM_P2
2023/05/14 00:00:41;;;;;;;;;;;12.73;27.78;;;;;;2674505;76;20343;-91
2023/05/14 00:04:10;;;;;;;;;;;12.65;27.84;;;;;;2674775;76;20330;-92
2023/05/14 00:07:38;;;;;;;;;;;12.57;27.69;;;;;;2674700;76;20313;-91
2023/05/14 00:11:11;;;;;;;;;;;12.47;27.33;;;;;;2675243;76;20335;-91
2023/05/14 00:14:39;;;;;;;;;;;12.29;27.31;;;;;;2675620;76;20330;-91
2023/05/14 00:18:10;;;;;;;;;;;12.16;27.33;;;;;;2675139;76;20350;-90
2023/05/14 00:21:39;;;;;;;;;;;12.04;28.01;;;;;;2675139;76;20357;-92
2023/05/14 00:25:07;;;;;;;;;;;11.96;27.78;;;;;;2675029;76;20319;-91
2023/05/14 00:28:35;;;;;;;;;;;11.85;27.55;;;;;;2675086;76;20331;-91
2023/05/14 00:32:03;;;;;;;;;;;11.74;27.49;;;;;;2675077;76;20328;-91
2023/05/14 00:35:34;;;;;;;;;;;11.66;27.62;;;;;;2674920;76;20314;-91
2023/05/14 00:39:01;;;;;;;;;;;11.62;28.04;;;;;;2675178;76;20340;-91
2023/05/14 00:42:29;;;;;;;;;;;11.63;27.91;;;;;;2675027;76;20337;-91
2023/05/14 00:45:57;;;;;;;;;;;11.60;27.89;;;;;;2675516;76;20350;-91
2023/05/14 00:49:25;;;;;;;;;;;11.58;27.98;;;;;;2675369;76;20322;-90
2023/05/14 00:52:53;;;;;;;;;;;11.56;27.71;;;;;;2675260;76;20296;-91
2023/05/14 00:56:21;;;;;;;;;;;11.54;27.40;;;;;;2674939;76;20323;-91
2023/05/14 00:59:49;;;;;;;;;;;11.47;26.94;;;;;;2675296;76;20312;-91
2023/05/14 01:03:17;;;;;;;;;;;11.39;27.00;;;;;;2674493;76;20787;-90
2023/05/14 01:06:45;;;;;;;;;;;11.32;27.10;;;;;;2674823;76;20733;-90
2023/05/14 01:10:13;;;;;;;;;;;11.28;27.20;;;;;;2675021;76;20802;-91
2023/05/14 01:13:41;;;;;;;;;;;11.28;27.51;;;;;;2675498;76;20762;-90
2023/05/14 01:17:12;;;;;;;;;;;11.28;27.68;;;;;;2675229;76;20318;-90
2023/05/14 01:20:41;;;;;;;;;;;11.30;28.08;;;;;;2674889;76;20306;-90
2023/05/14 01:24:09;;;;;;;;;;;11.37;28.56;;;;;;2674651;76;20308;-91
2023/05/14 01:27:37;;;;;;;;;;;11.51;28.99;;;;;;2675208;76;20328;-92
2023/05/14 01:31:05;;;;;;;;;;;11.60;29.31;;;;;;2675637;76;20798;-90
2023/05/14 01:34:33;;;;;;;;;;;11.73;29.29;;;;;;2674643;76;20386;-91
2023/05/14 01:38:01;;;;;;;;;;;11.85;29.22;;;;;;2674982;76;20338;-92
2023/05/14 01:41:30;;;;;;;;;;;11.98;29.10;;;;;;2675360;76;20345;-91
2023/05/14 01:44:58;;;;;;;;;;;12.04;28.85;;;;;;2675387;76;20342;-91
2023/05/14 01:48:26;;;;;;;;;;;12.08;28.74;;;;;;2674643;76;20316;-91
2023/05/14 01:51:56;;;;;;;;;;;12.11;28.70;;;;;;2675150;76;20999;-91
2023/05/14 01:55:24;;;;;;;;;;;12.13;28.66;;;;;;2675492;76;20803;-91
2023/05/14 01:58:54;;;;;;;;;;;12.17;28.71;;;;;;2675202;76;20363;-90
2023/05/14 02:02:22;;;;;;;;;;;12.19;28.63;;;;;;2675079;76;20776;-90
2023/05/14 02:05:50;;;;;;;;;;;12.15;28.47;;;;;;2675209;76;20414;-90
2023/05/14 02:09:18;;;;;;;;;;;12.06;28.58;;;;;;2675175;76;20334;-91
2023/05/14 02:12:46;;;;;;;;;;;12.03;28.81;;;;;;2675351;76;20315;-89
2023/05/14 02:16:15;;;;;;;;;;;12.05;29.00;;;;;;2674665;76;20349;-90
2023/05/14 02:19:43;;;;;;;;;;;12.11;28.84;;;;;;2674997;76;20312;-90
2023/05/14 02:23:11;;;;;;;;;;;12.08;28.76;;;;;;2675125;76;20305;-90
2023/05/14 02:26:39;;;;;;;;;;;12.03;28.62;;;;;;2675015;76;20308;-90
2023/05/14 02:30:07;;;;;;;;;;;11.99;28.65;;;;;;2675050;76;20312;-89
2023/05/14 02:33:35;;;;;;;;;;;11.96;28.78;;;;;;2674933;76;20308;-90
2023/05/14 02:37:03;;;;;;;;;;;11.97;28.78;;;;;;2675020;76;20301;-90
2023/05/14 02:40:31;;;;;;;;;;;12.01;28.68;;;;;;2675201;76;20338;-90
2023/05/14 02:43:59;;;;;;;;;;;12.02;28.68;;;;;;2674744;76;20317;-90
2023/05/14 02:47:27;;;;;;;;;;;12.02;28.54;;;;;;2675349;76;20329;-90
2023/05/14 02:50:55;;;;;;;;;;;12.05;28.51;;;;;;2674658;76;20342;-90
2023/05/14 02:54:23;;;;;;;;;;;11.99;28.35;;;;;;2675062;76;20327;-91
2023/05/14 02:57:52;;;;;;;;;;;12.00;28.37;;;;;;2675174;76;20303;-91
2023/05/14 03:01:20;;;;;;;;;;;12.03;28.35;;;;;;2675129;76;20302;-91
2023/05/14 03:04:50;;;;;;;;;;;11.98;28.16;;;;;;2674954;76;20309;-91
2023/05/14 03:08:18;;;;;;;;;;;11.99;28.30;;;;;;2675225;76;20296;-90
2023/05/14 03:11:46;;;;;;;;;;;11.98;28.15;;;;;;2674926;76;20310;-91
2023/05/14 03:15:14;;;;;;;;;;;11.97;28.12;;;;;;2675327;76;20344;-90
2023/05/14 03:18:42;;;;;;;;;;;11.94;28.16;;;;;;2675521;76;20347;-90
2023/05/14 03:22:10;;;;;;;;;;;11.98;28.09;;;;;;2675753;76;20322;-90
2023/05/14 03:25:38;;;;;;;;;;;11.99;28.10;;;;;;2675566;76;20324;-91
2023/05/14 03:29:07;;;;;;;;;;;11.98;28.12;;;;;;2675520;76;20331;-90
2023/05/14 03:32:36;;;;;;;;;;;12.02;28.12;;;;;;2675467;76;20391;-90
2023/05/14 03:36:04;;;;;;;;;;;12.05;27.97;;;;;;2675323;76;20357;-90
2023/05/14 03:39:32;;;;;;;;;;;12.03;27.91;;;;;;2675179;76;20359;-90
2023/05/14 03:43:00;;;;;;;;;;;12.06;27.94;;;;;;2675203;76;20338;-90
2023/05/14 03:46:28;;;;;;;;;;;12.11;27.93;;;;;;2675334;76;20801;-90
2023/05/14 03:49:56;;;;;;;;;;;12.19;27.91;;;;;;2675451;76;20334;-90
2023/05/14 03:53:24;;;;;;;;;;;12.22;27.82;;;;;;2675230;76;20360;-90
2023/05/14 03:56:52;;;;;;;;;;;12.18;27.74;;;;;;2675196;76;20343;-90
2023/05/14 04:00:21;;;;;;;;;;;12.18;27.78;;;;;;2674864;76;20337;-89
2023/05/14 04:03:49;;;;;;;;;;;12.21;27.68;;;;;;2674794;76;20338;-90
2023/05/14 04:07:17;;;;;;;;;;;12.20;27.58;;;;;;2674906;76;20310;-90
2023/05/14 04:10:45;;;;;;;;;;;12.28;27.64;;;;;;2675169;76;20361;-90
2023/05/14 04:14:13;;;;;;;;;;;12.30;27.39;;;;;;2675304;76;20316;-90
2023/05/14 04:17:41;;;;;;;;;;;12.35;27.52;;;;;;2675017;76;20333;-90
2023/05/14 04:21:09;;;;;;;;;;;12.52;27.52;;;;;;2675270;76;20291;-89
2023/05/14 04:24:37;;;;;;;;;;;12.51;27.21;;;;;;2675112;76;20305;-90
2023/05/14 04:28:05;;;;;;;;;;;12.58;27.23;;;;;;2675132;76;20334;-90
2023/05/14 04:31:36;;;;;;;;;;;12.53;27.13;;;;;;2675740;76;20315;-90
2023/05/14 04:35:03;;;;;;;;;;;12.48;27.10;;;;;;2675451;76;20310;-90
2023/05/14 04:38:32;;;;;;;;;;;12.43;27.13;;;;;;2675137;76;20305;-90
2023/05/14 04:42:00;;;;;;;;;;;12.38;27.07;;;;;;2674985;76;20325;-90
2023/05/14 04:45:28;;;;;;;;;;;12.35;27.01;;;;;;2675389;76;20318;-90
2023/05/14 04:48:56;;;;;;;;;;;12.43;27.27;;;;;;2674942;76;20322;-89
2023/05/14 04:52:24;;;;;;;;;;;12.47;27.16;;;;;;2675595;76;20808;-90
2023/05/14 04:55:53;;;;;;;;;;;12.43;26.94;;;;;;2675471;76;20317;-90
2023/05/14 04:59:21;;;;;;;;;;;12.38;27.12;;;;;;2674978;76;20317;-90
2023/05/14 05:02:49;;;;;;;;;;;12.33;27.30;;;;;;2675488;76;20313;-90
2023/05/14 05:06:17;;;;;;;;;;;12.29;27.52;;;;;;2674859;76;20823;-91
2023/05/14 05:09:45;;;;;;;;;;;12.31;27.67;;;;;;2674958;76;20308;-90
2023/05/14 05:13:15;;;;;;;;;;;12.36;27.67;;;;;;2675163;76;20311;-90
2023/05/14 05:16:43;;;;;;;;;;;12.34;27.70;;;;;;2675489;76;20339;-90
2023/05/14 05:20:12;;;;;;;;;;;12.30;27.85;;;;;;2675108;76;20299;-90
2023/05/14 05:23:40;;;;;;;;;;;12.34;27.97;;;;;;2675405;76;20296;-90
2023/05/14 05:27:08;;;;;;;;;;;12.40;28.03;;;;;;2675373;76;20375;-91
2023/05/14 05:30:36;;;;;;;;;;;12.46;27.93;;;;;;2675723;76;20313;-89
2023/05/14 05:34:04;;;;;;;;;;;12.46;27.81;;;;;;2674970;76;20325;-90
2023/05/14 05:37:32;;;;;;;;;;;12.46;27.84;;;;;;2675382;76;20326;-89
2023/05/14 05:41:01;;;;;;;;;;;12.49;27.85;;;;;;2674984;76;20323;-90
2023/05/14 05:44:29;;;;;;;;;;;12.51;28.04;;;;;;2674834;76;20308;-88
2023/05/14 05:47:58;;;;;;;;;;;12.45;28.01;;;;;;2674833;76;20306;-91
2023/05/14 05:51:26;;;;;;;;;;;12.48;28.10;;;;;;2674840;76;20767;-91
2023/05/14 05:54:54;;;;;;;;;;;12.51;28.30;;;;;;2674698;76;20752;-90
2023/05/14 05:58:22;;;;;;;;;;;12.60;28.60;;;;;;2674399;76;20317;-91
2023/05/14 06:01:50;;;;;;;;;;;12.66;28.56;;;;;;2673662;76;20322;-90
2023/05/14 06:05:18;;;;;;;;;;;12.71;28.37;;;;;;2674571;76;20318;-91
2023/05/14 06:08:46;;;;;;;;;;;12.72;28.25;;;;;;2674279;76;20333;-91
2023/05/14 06:12:15;;;;;;;;;;;12.69;28.25;;;;;;2674015;76;20388;-90
2023/05/14 06:15:43;;;;;;;;;;;12.71;28.22;;;;;;2674879;76;20322;-91
2023/05/14 06:19:11;;;;;;;;;;;12.75;28.31;;;;;;2674947;76;20336;-91
2023/05/14 06:22:42;;;;;;;;;;;12.84;28.19;;;;;;2675566;76;20297;-90
2023/05/14 06:26:10;;;;;;;;;;;12.87;28.04;;;;;;2675038;76;20307;-90
2023/05/14 06:29:38;;;;;;;;;;;13.00;28.17;;;;;;2675037;76;20313;-90
2023/05/14 06:33:06;;;;;;;;;;;13.06;27.86;;;;;;2674850;76;20321;-90
2023/05/14 06:36:34;;;;;;;;;;;13.12;27.79;;;;;;2675156;76;20311;-90
2023/05/14 06:40:02;;;;;;;;;;;13.25;27.74;;;;;;2674974;76;20354;-90
2023/05/14 06:43:35;;;;;;;;;;;13.36;27.52;;;;;;2674987;76;20287;-90
2023/05/14 06:47:00;;;;;;;;;;;13.41;27.39;;;;;;2674455;76;20318;-91
2023/05/14 06:50:28;;;;;;;;;;;13.47;27.11;;;;;;2674566;76;20309;-91
2023/05/14 06:53:57;;;;;;;;;;;13.65;27.36;;;;;;2674404;76;20338;-91
2023/05/14 06:57:25;;;;;;;;;;;13.78;26.84;;;;;;2674363;76;20314;-91
2023/05/14 07:00:53;;;;;;;;;;;13.93;26.62;;;;;;2674255;76;20346;-90
2023/05/14 07:04:21;;;;;;;;;;;13.92;26.05;;;;;;2672707;76;20308;-90
2023/05/14 07:07:50;;;;;;;;;;;13.90;25.85;;;;;;2671815;76;20322;-87
2023/05/14 07:11:18;;;;;;;;;;;13.90;25.63;;;;;;2673004;76;20322;-88
2023/05/14 07:14:46;;;;;;;;;;;14.00;25.42;;;;;;2673554;76;20799;-88
2023/05/14 07:18:14;;;;;;;;;;;14.10;25.24;;;;;;2674157;76;20737;-88
2023/05/14 07:21:42;;;;;;;;;;;14.23;25.35;;;;;;2674024;76;20335;-88
2023/05/14 07:25:10;;;;;;;;;;;14.28;24.76;;;;;;2674018;76;20303;-87
2023/05/14 07:28:38;;;;;;;;;;;14.17;24.08;;;;;;2674347;76;20310;-89
2023/05/14 07:32:12;;;;;;;;;;;14.21;24.82;;;;;;2673943;76;20352;-88
2023/05/14 07:35:37;;;;;;;;;;;14.14;24.27;;;;;;2673680;76;20298;-87
2023/05/14 07:39:05;;;;;;;;;;;13.94;23.69;;;;;;2674659;76;20372;-86
2023/05/14 07:42:33;;;;;;;;;;;14.20;24.28;;;;;;2674101;76;20671;-87
2023/05/14 07:46:01;;;;;;;;;;;14.64;24.62;;;;;;2674795;76;20331;-87
2023/05/14 07:49:29;;;;;;;;;;;14.77;23.81;;;;;;2674177;76;20332;-87
2023/05/14 07:52:57;;;;;;;;;;;14.87;23.79;;;;;;2674908;76;20313;-88
2023/05/14 07:56:25;;;;;;;;;;;14.75;24.25;;;;;;2674466;76;20354;-88
2023/05/14 07:59:53;;;;;;;;;;;14.50;24.57;;;;;;2675273;76;20343;-89
2023/05/14 08:03:21;;;;;;;;;;;14.27;24.84;;;;;;2676479;76;20311;-88
2023/05/14 08:06:50;;;;;;;;;;;14.12;25.07;;;;;;2676092;76;20456;-89
2023/05/14 08:10:18;;;;;;;;;;;14.04;24.69;;;;;;2675881;76;20340;-88
2023/05/14 08:13:46;;;;;;;;;;;14.20;24.75;;;;;;2675884;76;20393;-89
2023/05/14 08:17:16;;;;;;;;;;;14.68;24.44;;;;;;2675954;76;20340;-89
2023/05/14 08:20:44;;;;;;;;;;;15.23;23.75;;;;;;2675625;76;20335;-89
2023/05/14 08:24:13;;;;;;;;;;;15.56;22.47;;;;;;2675559;76;20317;-88
2023/05/14 08:27:41;;;;;;;;;;;15.98;22.16;;;;;;2675717;76;20310;-89
2023/05/14 08:31:09;;;;;;;;;;;16.27;21.64;;;;;;2676088;76;20321;-88
2023/05/14 08:34:37;;;;;;;;;;;16.31;21.18;;;;;;2675556;76;20316;-89
2023/05/14 08:38:05;;;;;;;;;;;16.37;21.38;;;;;;2675475;76;20308;-88
2023/05/14 08:41:33;;;;;;;;;;;16.28;20.44;;;;;;2675708;76;20312;-89
2023/05/14 08:45:01;;;;;;;;;;;16.02;20.40;;;;;;2676501;76;20668;-88
2023/05/14 08:48:29;;;;;;;;;;;15.91;21.02;;;;;;2675789;76;20346;-87
2023/05/14 08:51:57;;;;;;;;;;;15.86;21.39;;;;;;2674436;76;20336;-87
2023/05/14 08:55:25;;;;;;;;;;;15.54;20.25;;;;;;2675090;76;20310;-88
2023/05/14 08:58:53;;;;;;;;;;;15.52;20.26;;;;;;2674950;76;20331;-88
2023/05/14 09:02:22;;;;;;;;;;;15.91;20.26;;;;;;2675902;76;20334;-88
2023/05/14 09:05:50;;;;;;;;;;;16.56;19.86;;;;;;2674984;76;20743;-87
2023/05/14 09:09:21;;;;;;;;;;;17.09;18.85;;;;;;2674606;76;20642;-87
2023/05/14 09:12:48;;;;;;;;;;;17.50;18.04;;;;;;2674335;76;20359;-89
2023/05/14 09:16:21;;;;;;;;;;;17.78;17.48;;;;;;2677436;76;20318;-89
2023/05/14 09:19:48;;;;;;;;;;;18.12;17.63;;;;;;2674104;76;20395;-90
2023/05/14 09:23:18;;;;;;;;;;;17.58;15.26;;;;;;2674508;76;20338;-88
2023/05/14 09:26:46;;;;;;;;;;;16.78;15.39;;;;;;2673524;76;20335;-89
2023/05/14 09:30:14;;;;;;;;;;;16.51;16.46;;;;;;2673475;76;20382;-89
2023/05/14 09:33:42;;;;;;;;;;;16.24;16.27;;;;;;2674232;76;20323;-89
2023/05/14 09:37:10;;;;;;;;;;;16.26;16.98;;;;;;2674480;76;20365;-89
2023/05/14 09:40:38;;;;;;;;;;;16.31;16.65;;;;;;2674423;76;20314;-89
2023/05/14 09:44:06;;;;;;;;;;;16.27;16.13;;;;;;2674592;76;20727;-89
2023/05/14 09:47:34;;;;;;;;;;;16.41;15.62;;;;;;2674562;76;20362;-89
2023/05/14 09:51:04;;;;;;;;;;;16.64;14.79;;;;;;2674333;76;20378;-89
2023/05/14 09:54:32;;;;;;;;;;;16.92;13.93;;;;;;2673777;76;20790;-89
2023/05/14 09:58:00;;;;;;;;;;;16.92;12.97;;;;;;2674259;76;20432;-89
2023/05/14 10:01:28;;;;;;;;;;;16.88;12.92;;;;;;2674677;76;20331;-89
2023/05/14 10:04:57;;;;;;;;;;;16.63;12.95;;;;;;2674397;76;20316;-90
2023/05/14 10:08:25;;;;;;;;;;;16.70;13.31;;;;;;2674850;76;20352;-89
2023/05/14 10:11:53;;;;;;;;;;;17.02;12.52;;;;;;2674586;76;20352;-89
2023/05/14 10:15:21;;;;;;;;;;;17.07;11.12;;;;;;2674720;76;20323;-90
2023/05/14 10:18:51;;;;;;;;;;;17.10;10.90;;;;;;2673796;76;20335;-89
2023/05/14 10:22:19;;;;;;;;;;;17.22;10.57;;;;;;2673997;76;20330;-89
2023/05/14 10:25:47;;;;;;;;;;;17.26;11.04;;;;;;2673068;76;20825;-89
2023/05/14 10:29:15;;;;;;;;;;;17.11;10.59;;;;;;2674127;76;20782;-89
2023/05/14 10:32:43;;;;;;;;;;;16.96;10.62;;;;;;2674286;76;20362;-90
2023/05/14 10:36:14;;;;;;;;;;;16.77;11.04;;;;;;2673375;76;20347;-90
2023/05/14 10:39:41;;;;;;;;;;;16.56;11.26;;;;;;2673325;76;20375;-89
2023/05/14 10:43:10;;;;;;;;;;;16.42;11.54;;;;;;2672161;76;20312;-89
2023/05/14 10:46:38;;;;;;;;;;;16.54;10.94;;;;;;2670834;76;20324;-89
2023/05/14 10:50:09;;;;;;;;;;;17.17;11.68;;;;;;2671365;76;20391;-89
2023/05/14 10:53:37;;;;;;;;;;;17.93;10.82;;;;;;2671208;76;20347;-88
2023/05/14 10:57:05;;;;;;;;;;;18.70;9.59;;;;;;2670582;76;20344;-89
2023/05/14 11:00:33;;;;;;;;;;;18.71;8.01;;;;;;2672087;76;20838;-89
2023/05/14 11:04:02;;;;;;;;;;;18.39;6.97;;;;;;2671760;76;20381;-88
2023/05/14 11:07:30;;;;;;;;;;;18.19;6.38;;;;;;2672398;76;20476;-89
2023/05/14 11:11:00;;;;;;;;;;;18.29;6.26;;;;;;2673906;76;20326;-90
2023/05/14 11:14:31;;;;;;;;;;;18.84;5.68;;;;;;2674316;76;20364;-90
2023/05/14 11:17:58;;;;;;;;;;;19.27;3.43;;;;;;2674231;76;20364;-91
2023/05/14 11:21:31;;;;;;;;;;;19.06;3.11;;;;;;2675957;76;20342;-90
2023/05/14 11:24:59;;;;;;;;;;;18.77;4.04;;;;;;2673924;76;20395;-88
2023/05/14 11:28:27;;;;;;;;;;;18.56;3.80;;;;;;2672146;76;20320;-87
2023/05/14 11:31:55;;;;;;;;;;;18.46;4.68;;;;;;2672414;76;20372;-87
2023/05/14 11:35:24;;;;;;;;;;;18.51;4.26;;;;;;2674154;76;20323;-89
2023/05/14 11:38:52;;;;;;;;;;;18.87;4.47;;;;;;2674529;76;20402;-90
2023/05/14 11:42:20;;;;;;;;;;;19.15;2.56;;;;;;2674510;76;20334;-89
2023/05/14 11:45:48;;;;;;;;;;;19.55;1.96;;;;;;2673408;76;20362;-89
2023/05/14 11:49:16;;;;;;;;;;;19.62;1.91;;;;;;2674368;76;20327;-91
2023/05/14 11:52:46;;;;;;;;;;;19.53;0.58;;;;;;2673302;76;20429;-89
2023/05/14 11:56:14;;;;;;;;;;;20.24;0.73;;;;;;2674495;76;20386;-89
2023/05/14 11:59:42;;;;;;;;;;;21.40;0.55;;;;;;2672990;76;20343;-89
2023/05/14 12:03:11;;;;;;;;;;;21.81;-1.52;;;;;;2671979;76;20357;-89
2023/05/14 12:06:39;;;;;;;;;;;22.57;-2.15;;;;;;2674243;76;20339;-89
2023/05/14 12:10:09;;;;;;;;;;;23.76;-3.10;;;;;;2673244;76;20326;-88
2023/05/14 12:13:37;;;;;;;;;;;24.55;-4.47;;;;;;2669381;76;20791;-88
2023/05/14 12:17:05;;;;;;;;;;;24.51;-5.97;;;;;;2667831;76;20378;-87
2023/05/14 12:20:33;;;;;;;;;;;23.91;118.69;;;;;;2671238;76;20328;-91
2023/05/14 12:24:01;;;;;;;;;;;22.87;118.41;;;;;;2672758;76;20409;-89
2023/05/14 12:27:30;;;;;;;;;;;23.02;118.27;;;;;;2671692;76;20336;-89
2023/05/14 12:31:03;;;;;;;;;;;23.68;116.45;;;;;;2671236;76;20346;-89
2023/05/14 12:34:28;;;;;;;;;;;23.96;113.92;;;;;;2672404;76;20760;-91
2023/05/14 12:37:56;;;;;;;;;;;24.46;112.11;;;;;;2671133;76;20349;-90
2023/05/14 12:41:27;;;;;;;;;;;23.85;109.51;;;;;;2673785;76;20369;-90
2023/05/14 12:44:56;;;;;;;;;;;23.70;111.57;;;;;;2671503;76;20363;-90
2023/05/14 12:48:24;;;;;;;;;;;22.41;113.01;;;;;;2671099;76;20386;-88
2023/05/14 12:51:52;;;;;;;;;;;20.86;114.38;;;;;;2671522;76;20376;-90
2023/05/14 12:55:28;;;;;;;;;;;20.30;115.96;;;;;;2672493;76;20366;-89
2023/05/14 12:58:53;;;;;;;;;;;19.84;116.86;;;;;;2672588;76;20502;-90
2023/05/14 13:02:21;;;;;;;;;;;19.81;117.95;;;;;;2669984;76;20933;-88
2023/05/14 13:05:50;;;;;;;;;;;19.65;118.12;;;;;;2670183;76;20407;-87
2023/05/14 13:09:18;;;;;;;;;;;19.77;118.40;;;;;;2671059;76;20776;-87
2023/05/14 13:12:46;;;;;;;;;;;20.24;117.96;;;;;;2670651;76;20806;-87
2023/05/14 13:16:15;;;;;;;;;;;20.61;117.63;;;;;;2672575;76;20372;-87
2023/05/14 13:19:43;;;;;;;;;;;20.13;117.57;;;;;;2668863;76;20363;-85
2023/05/14 13:23:11;;;;;;;;;;;19.60;118.39;;;;;;2668504;76;20894;-86
2023/05/14 13:26:39;;;;;;;;;;;19.35;118.76;;;;;;2671553;76;20855;-87
2023/05/14 13:30:07;;;;;;;;;;;19.56;118.98;;;;;;2670456;76;20374;-90
2023/05/14 13:33:39;;;;;;;;;;;19.46;118.89;;;;;;2669987;76;22018;-88
2023/05/14 13:37:10;;;;;;;;;;;19.58;118.82;;;;;;2672713;76;20331;-91
2023/05/14 13:40:38;;;;;;;;;;;19.32;118.14;;;;;;2676225;76;20343;-90
2023/05/14 13:44:09;;;;;;;;;;;19.25;118.55;;;;;;2672189;76;20329;-92
2023/05/14 13:47:37;;;;;;;;;;;19.27;-5.99;;;;;;2673373;76;20357;-91
2023/05/14 13:51:05;;;;;;;;;;;18.63;118.44;;;;;;2671259;76;21238;-90
2023/05/14 13:54:34;;;;;;;;;;;18.99;-5.79;;;;;;2668575;76;20382;-87
2023/05/14 13:58:02;;;;;;;;;;;19.25;118.92;;;;;;2671070;76;20402;-87
2023/05/14 14:01:30;;;;;;;;;;;19.06;117.70;;;;;;2670482;76;20814;-88
2023/05/14 14:04:58;;;;;;;;;;;19.50;117.56;;;;;;2670822;76;20735;-90
2023/05/14 14:08:26;;;;;;;;;;;19.90;118.00;;;;;;2673572;76;20327;-90
2023/05/14 14:11:54;;;;;;;;;;;20.74;118.00;;;;;;2670829;76;20372;-88
2023/05/14 14:15:23;;;;;;;;;;;24.57;115.84;;;;;;2670320;76;20339;-90
2023/05/14 14:18:56;;;;;;;;;;;29.89;104.46;;;;;;2671055;76;20327;-90
2023/05/14 14:22:24;;;;;;;;;;;32.77;97.95;;;;;;2670847;76;20339;-90
2023/05/14 14:25:52;;;;;;;;;;;34.53;93.91;;;;;;2672355;76;20359;-88
2023/05/14 14:29:22;;;;;;;;;;;37.26;89.99;;;;;;2670443;76;20393;-89
2023/05/14 14:32:50;;;;;;;;;;;33.73;89.85;;;;;;2671991;76;20392;-87
2023/05/14 14:36:18;;;;;;;;;;;28.74;94.91;;;;;;2672248;76;20779;-86
2023/05/14 14:39:46;;;;;;;;;;;29.80;96.39;;;;;;2670831;76;20427;-88
2023/05/14 14:43:15;;;;;;;;;;;32.77;89.70;;;;;;2671061;76;20400;-87
2023/05/14 14:46:43;;;;;;;;;;;33.32;89.67;;;;;;2668882;76;20358;-89
2023/05/14 14:50:11;;;;;;;;;;;31.37;86.86;;;;;;2672083;76;20378;-88
2023/05/14 14:53:39;;;;;;;;;;;35.95;84.26;;;;;;2671974;76;20335;-86
2023/05/14 14:57:07;;;;;;;;;;;37.90;81.63;;;;;;2672772;76;20955;-89
2023/05/14 15:00:35;;;;;;;;;;;38.38;76.13;;;;;;2672672;76;20360;-89
2023/05/14 15:04:03;;;;;;;;;;;37.64;75.11;;;;;;2672724;76;20335;-89
2023/05/14 15:07:32;;;;;;;;;;;37.72;71.87;;;;;;2673873;76;20344;-89
2023/05/14 15:11:00;;;;;;;;;;;38.36;72.70;;;;;;2673247;76;20364;-89
2023/05/14 15:14:28;;;;;;;;;;;37.55;73.61;;;;;;2672860;76;20347;-88
2023/05/14 15:17:56;;;;;;;;;;;37.65;74.73;;;;;;2674063;76;20363;-88
2023/05/14 15:21:24;;;;;;;;;;;39.08;73.15;;;;;;2674390;76;20358;-87
2023/05/14 15:24:52;;;;;;;;;;;34.92;74.07;;;;;;2673278;76;20356;-88
2023/05/14 15:28:20;;;;;;;;;;;36.09;72.82;;;;;;2673323;76;20374;-90
2023/05/14 15:31:48;;;;;;;;;;;35.95;71.26;;;;;;2674047;76;20319;-89
2023/05/14 15:35:17;;;;;;;;;;;28.38;79.06;;;;;;2672952;76;20799;-89
2023/05/14 15:38:45;;;;;;;;;;;24.04;90.53;;;;;;2673743;76;20400;-89
2023/05/14 15:42:13;;;;;;;;;;;21.68;97.81;;;;;;2673640;76;20350;-87
2023/05/14 15:45:41;;;;;;;;;;;19.98;104.83;;;;;;2673540;76;20375;-89
2023/05/14 15:49:10;;;;;;;;;;;18.94;109.68;;;;;;2673935;76;20308;-88
2023/05/14 15:52:38;;;;;;;;;;;18.36;113.57;;;;;;2674062;76;20322;-89
2023/05/14 15:56:06;;;;;;;;;;;17.80;116.30;;;;;;2674284;76;20768;-89
2023/05/14 15:59:34;;;;;;;;;;;17.48;117.41;;;;;;2673877;76;20318;-89
2023/05/14 16:03:02;;;;;;;;;;;16.90;-5.15;;;;;;2671926;76;20993;-87
2023/05/14 16:06:31;;;;;;;;;;;16.63;-0.98;;;;;;2671226;76;20311;-89
2023/05/14 16:09:59;;;;;;;;;;;16.30;1.80;;;;;;2671909;76;20775;-86
2023/05/14 16:13:27;;;;;;;;;;;15.96;5.39;;;;;;2672976;76;20356;-88
2023/05/14 16:16:55;;;;;;;;;;;15.60;7.81;;;;;;2672283;76;20371;-86
2023/05/14 16:20:23;;;;;;;;;;;15.32;10.91;;;;;;2671732;76;20397;-88
2023/05/14 16:23:56;;;;;;;;;;;15.17;12.51;;;;;;2671823;76;20832;-89
2023/05/14 16:27:21;;;;;;;;;;;15.00;13.17;;;;;;2673652;76;20375;-88
2023/05/14 16:30:49;;;;;;;;;;;14.99;13.94;;;;;;2673497;76;20370;-87
2023/05/14 16:34:17;;;;;;;;;;;14.99;14.00;;;;;;2672985;76;20344;-87
2023/05/14 16:37:45;;;;;;;;;;;14.98;14.21;;;;;;2673592;76;20825;-86
2023/05/14 16:41:14;;;;;;;;;;;15.06;14.58;;;;;;2674301;76;20927;-89
2023/05/14 16:44:42;;;;;;;;;;;15.13;14.32;;;;;;2674112;76;20351;-89
2023/05/14 16:48:12;;;;;;;;;;;15.21;13.95;;;;;;2673269;76;20364;-87
2023/05/14 16:51:42;;;;;;;;;;;15.24;13.78;;;;;;2674190;76;20318;-88
2023/05/14 16:55:10;;;;;;;;;;;15.09;13.65;;;;;;2673651;76;20345;-86
2023/05/14 16:58:46;;;;;;;;;;;15.02;13.71;;;;;;2674047;76;20342;-89
2023/05/14 17:02:11;;;;;;;;;;;14.89;13.44;;;;;;2673876;76;20356;-88
2023/05/14 17:05:39;;;;;;;;;;;14.97;12.88;;;;;;2673278;76;20406;-88
2023/05/14 17:09:07;;;;;;;;;;;15.16;12.38;;;;;;2673087;76;20364;-88
2023/05/14 17:12:35;;;;;;;;;;;15.26;11.56;;;;;;2674410;76;20768;-90
2023/05/14 17:16:03;;;;;;;;;;;15.26;10.85;;;;;;2674861;76;21069;-88
2023/05/14 17:19:32;;;;;;;;;;;15.33;10.65;;;;;;2673771;76;20787;-88
2023/05/14 17:23:03;;;;;;;;;;;15.42;10.35;;;;;;2673240;76;20363;-85
2023/05/14 17:26:30;;;;;;;;;;;15.47;10.03;;;;;;2673182;76;20395;-85
2023/05/14 17:29:58;;;;;;;;;;;15.48;9.80;;;;;;2672434;76;20687;-89
2023/05/14 17:33:26;;;;;;;;;;;15.46;9.78;;;;;;2672063;76;20339;-87
2023/05/14 17:36:54;;;;;;;;;;;15.27;9.72;;;;;;2672182;76;20718;-89
2023/05/14 17:40:22;;;;;;;;;;;15.18;9.96;;;;;;2672212;76;20394;-88
2023/05/14 17:43:54;;;;;;;;;;;15.09;10.10;;;;;;2672526;76;20360;-87
2023/05/14 17:47:22;;;;;;;;;;;14.98;10.36;;;;;;2672538;76;20818;-88
2023/05/14 17:50:52;;;;;;;;;;;14.81;10.88;;;;;;2673449;76;20317;-91
2023/05/14 17:54:20;;;;;;;;;;;14.70;11.52;;;;;;2675315;76;20371;-90
2023/05/14 17:57:48;;;;;;;;;;;14.77;11.23;;;;;;2673622;76;20326;-90
2023/05/14 18:01:21;;;;;;;;;;;14.80;10.94;;;;;;2674546;76;20771;-89
2023/05/14 18:04:51;;;;;;;;;;;14.72;10.82;;;;;;2674462;76;20345;-89
2023/05/14 18:08:20;;;;;;;;;;;14.66;10.95;;;;;;2674532;76;20376;-89
2023/05/14 18:11:48;;;;;;;;;;;14.64;10.97;;;;;;2673296;76;20344;-88
2023/05/14 18:15:24;;;;;;;;;;;14.57;10.91;;;;;;2674182;76;20373;-89
2023/05/14 18:18:46;;;;;;;;;;;14.51;11.01;;;;;;2673723;76;20338;-87
2023/05/14 18:22:14;;;;;;;;;;;14.36;11.92;;;;;;2672144;76;20366;-88
2023/05/14 18:25:43;;;;;;;;;;;14.27;12.09;;;;;;2673398;76;20908;-88
2023/05/14 18:29:11;;;;;;;;;;;14.18;12.19;;;;;;2673091;76;20761;-88
2023/05/14 18:32:39;;;;;;;;;;;14.06;12.39;;;;;;2673582;76;20813;-86
2023/05/14 18:36:07;;;;;;;;;;;13.94;12.26;;;;;;2673917;76;20381;-89
2023/05/14 18:39:35;;;;;;;;;;;13.86;12.41;;;;;;2674450;76;20366;-89
2023/05/14 18:43:04;;;;;;;;;;;13.81;12.66;;;;;;2675857;76;20313;-87
2023/05/14 18:46:32;;;;;;;;;;;13.76;12.75;;;;;;2673804;76;20326;-89
2023/05/14 18:50:00;;;;;;;;;;;13.79;12.94;;;;;;2673401;76;20412;-89
2023/05/14 18:53:28;;;;;;;;;;;13.83;12.77;;;;;;2672431;76;20392;-86
2023/05/14 18:56:56;;;;;;;;;;;13.76;12.39;;;;;;2671764;76;20327;-86
2023/05/14 19:00:24;;;;;;;;;;;13.62;12.20;;;;;;2671060;76;20395;-87
2023/05/14 19:03:52;;;;;;;;;;;13.43;12.55;;;;;;2670612;76;20822;-86
2023/05/14 19:07:21;;;;;;;;;;;13.21;12.35;;;;;;2669330;76;20834;-87
2023/05/14 19:10:49;;;;;;;;;;;13.04;12.70;;;;;;2669920;76;20391;-87
2023/05/14 19:14:17;;;;;;;;;;;12.89;12.65;;;;;;2670426;76;20341;-88
2023/05/14 19:17:46;;;;;;;;;;;12.74;12.43;;;;;;2673299;76;20348;-89
2023/05/14 19:21:14;;;;;;;;;;;12.65;12.55;;;;;;2673495;76;20350;-88
2023/05/14 19:24:42;;;;;;;;;;;12.58;12.85;;;;;;2673429;76;20917;-90
2023/05/14 19:28:10;;;;;;;;;;;12.58;13.52;;;;;;2673589;76;20398;-91
2023/05/14 19:31:38;;;;;;;;;;;12.58;14.29;;;;;;2673373;76;20340;-89
2023/05/14 19:35:06;;;;;;;;;;;12.64;14.23;;;;;;2673959;76;20383;-88
2023/05/14 19:38:35;;;;;;;;;;;12.70;14.23;;;;;;2672787;76;20365;-89
2023/05/14 19:42:03;;;;;;;;;;;12.74;14.11;;;;;;2673187;76;20412;-88
2023/05/14 19:45:31;;;;;;;;;;;12.77;14.15;;;;;;2673240;76;20355;-88
2023/05/14 19:48:59;;;;;;;;;;;12.81;14.22;;;;;;2673249;76;20372;-89
2023/05/14 19:52:27;;;;;;;;;;;12.90;14.32;;;;;;2671626;76;20338;-88
2023/05/14 19:55:58;;;;;;;;;;;12.90;14.30;;;;;;2672335;76;20367;-89
2023/05/14 19:59:25;;;;;;;;;;;12.93;14.23;;;;;;2673224;76;20404;-89
2023/05/14 20:02:54;;;;;;;;;;;12.90;14.18;;;;;;2673275;76;20315;-87
2023/05/14 20:06:22;;;;;;;;;;;12.86;14.39;;;;;;2672400;76;20829;-89
2023/05/14 20:09:50;;;;;;;;;;;12.88;14.61;;;;;;2674333;76;20361;-90